Time;durP1;ratioP1;P1;durP2;ratioP2;P2;SDS_P1;SDS_P2;PMS_P1;PMS_P2;Temp;Humidity;BMP_temperature;BMP_pressure;BME280_temperature;BME280_humidity;BME280_pressure;Samples;Min_cycle;Max_cycle;Signal;HPM_P1;HPM_P2
2022/11/01 00:00:17;;;;;;;26.15;16.70;;;;;;;7.77;100.00;95930.06;1025755;28;20039;-70
2022/11/01 00:00:48;;;;;;;26.20;16.67;;;;;;;7.82;100.00;95934.56;1017740;29;20020;-69
2022/11/01 00:01:18;;;;;;;28.20;16.17;;;;;;;7.83;100.00;95928.31;1017804;29;20020;-70
2022/11/01 00:01:52;;;;;;;23.48;15.95;;;;;;;7.93;100.00;95943.34;1020009;28;20059;-69
2022/11/01 00:02:22;;;;;;;26.42;17.27;;;;;;;7.89;100.00;95929.97;1020751;29;20019;-69
2022/11/01 00:02:53;;;;;;;25.90;16.77;;;;;;;7.95;100.00;95936.06;1025360;28;20337;-70
2022/11/01 00:03:23;;;;;;;28.17;17.50;;;;;;;7.94;100.00;95937.06;1018760;29;20490;-69
2022/11/01 00:03:54;;;;;;;28.38;17.17;;;;;;;7.92;100.00;95936.53;1025663;28;20023;-70
2022/11/01 00:04:31;;;;;;;30.10;16.77;;;;;;;7.85;100.00;95928.88;1025952;28;20034;-72
2022/11/01 00:05:04;;;;;;;27.73;17.55;;;;;;;7.91;100.00;95927.09;1029440;28;20275;-71
2022/11/01 00:05:35;;;;;;;29.10;16.42;;;;;;;7.85;100.00;95917.63;1021691;28;20281;-72
2022/11/01 00:06:05;;;;;;;28.13;16.73;;;;;;;7.85;100.00;95917.63;1025905;28;20285;-70
2022/11/01 00:06:36;;;;;;;25.15;16.20;;;;;;;7.90;100.00;95928.16;1025708;28;20034;-70
2022/11/01 00:07:06;;;;;;;26.00;17.00;;;;;;;7.93;100.00;95927.66;1021716;28;20587;-71
2022/11/01 00:07:37;;;;;;;30.35;17.45;;;;;;;7.86;100.00;95914.00;1025793;28;20457;-69
2022/11/01 00:08:07;;;;;;;23.75;15.85;;;;;;;7.86;100.00;95916.59;1022090;29;20077;-71
2022/11/01 00:08:37;;;;;;;25.88;15.90;;;;;;;7.89;100.00;95926.56;1029712;28;20026;-70
2022/11/01 00:09:08;;;;;;;23.50;15.30;;;;;;;7.88;100.00;95931.00;1033672;28;20014;-69
2022/11/01 00:09:38;;;;;;;24.15;15.23;;;;;;;7.80;100.00;95913.13;1029821;28;20038;-72
2022/11/01 00:10:10;;;;;;;24.25;15.55;;;;;;;7.86;100.00;95927.84;1026438;28;20114;-70
2022/11/01 00:10:40;;;;;;;22.25;15.20;;;;;;;7.77;100.00;95914.38;1029889;28;20508;-71
2022/11/01 00:11:13;;;;;;;26.63;15.75;;;;;;;7.84;100.00;95922.06;1029607;28;20277;-70
2022/11/01 00:11:43;;;;;;;27.08;14.77;;;;;;;7.79;100.00;95922.78;1029897;28;20006;-69
2022/11/01 00:12:14;;;;;;;22.27;14.40;;;;;;;7.86;100.00;95916.59;1020613;28;20331;-70
2022/11/01 00:12:45;;;;;;;29.48;16.17;;;;;;;7.68;100.00;95894.94;1021699;29;20035;-71
2022/11/01 00:13:16;;;;;;;26.35;15.25;;;;;;;7.85;100.00;95920.25;1023652;28;20019;-68
2022/11/01 00:13:47;;;;;;;28.17;16.73;;;;;;;7.78;100.00;95915.19;1021860;28;20263;-69
2022/11/01 00:14:18;;;;;;;25.50;15.43;;;;;;;7.78;100.00;95915.19;1018030;29;20486;-69
2022/11/01 00:14:49;;;;;;;22.83;14.90;;;;;;;7.84;100.00;95926.50;1026063;28;20290;-70
2022/11/01 00:15:19;;;;;;;26.58;15.13;;;;;;;7.75;100.00;95910.44;1025594;28;20266;-70
2022/11/01 00:15:49;;;;;;;26.30;15.25;;;;;;;7.79;100.00;95925.38;1026075;28;20042;-70
2022/11/01 00:16:20;;;;;;;23.27;14.55;;;;;;;7.73;100.00;95910.66;1029866;28;20035;-69
2022/11/01 00:16:51;;;;;;;26.48;15.27;;;;;;;7.72;100.00;95903.09;1025443;28;20054;-69
2022/11/01 00:17:21;;;;;;;21.45;13.85;;;;;;;7.79;100.00;95922.78;1025664;28;20757;-71
2022/11/01 00:17:51;;;;;;;23.40;15.32;;;;;;;7.79;100.00;95917.56;1021734;28;20022;-69
2022/11/01 00:18:25;;;;;;;27.85;15.68;;;;;;;7.73;100.00;95913.28;1021004;29;20030;-69
2022/11/01 00:18:55;;;;;;;32.83;15.77;;;;;;;7.73;100.00;95908.06;1025526;28;20767;-69
2022/11/01 00:19:26;;;;;;;22.60;14.20;;;;;;;7.77;100.00;95918.81;1021797;29;20169;-69
2022/11/01 00:19:56;;;;;;;27.08;16.05;;;;;;;7.81;100.00;95922.53;1017689;29;20059;-71
2022/11/01 00:20:27;;;;;;;25.80;16.42;;;;;;;7.82;100.00;95916.28;1021619;28;20027;-71
2022/11/01 00:20:57;;;;;;;27.38;15.05;;;;;;;7.82;100.00;95924.13;1021897;29;20039;-70
2022/11/01 00:21:28;;;;;;;29.08;16.30;;;;;;;7.83;100.00;95917.06;1021714;28;20031;-70
2022/11/01 00:21:58;;;;;;;27.55;15.70;;;;;;;7.82;100.00;95918.13;1017596;29;20028;-69
2022/11/01 00:22:29;;;;;;;24.00;15.05;;;;;;;7.89;100.00;95916.13;1012910;29;20032;-69
2022/11/01 00:22:59;;;;;;;24.45;14.77;;;;;;;7.87;100.00;95912.94;1021953;29;20034;-70
2022/11/01 00:23:29;;;;;;;28.35;15.95;;;;;;;7.96;100.00;95920.13;1025696;28;20567;-71
2022/11/01 00:24:00;;;;;;;20.77;14.05;;;;;;;8.01;100.00;95914.19;1029790;28;20501;-71
2022/11/01 00:24:30;;;;;;;22.45;14.82;;;;;;;8.03;100.00;95914.75;1021846;29;20031;-71
2022/11/01 00:25:04;;;;;;;25.02;15.35;;;;;;;8.02;100.00;95907.94;1013869;29;20035;-71
2022/11/01 00:25:35;;;;;;;24.35;14.73;;;;;;;8.08;100.00;95917.44;1021754;29;20278;-70
2022/11/01 00:26:05;;;;;;;26.48;14.23;;;;;;;8.05;100.00;95910.06;1022978;28;20046;-70
2022/11/01 00:26:36;;;;;;;26.92;13.95;;;;;;;8.06;100.00;95916.09;1025964;28;21064;-70
2022/11/01 00:27:07;;;;;;;24.77;15.52;;;;;;;8.05;100.00;95915.28;1025760;28;20030;-71
2022/11/01 00:27:37;;;;;;;25.35;14.90;;;;;;;8.02;100.00;95905.31;1021919;29;20027;-71
2022/11/01 00:28:07;;;;;;;22.20;14.52;;;;;;;8.04;100.00;95916.31;1017996;29;20032;-72
2022/11/01 00:28:38;;;;;;;21.90;13.80;;;;;;;8.07;100.00;95918.44;1021603;29;20031;-70
2022/11/01 00:29:09;;;;;;;27.27;15.05;;;;;;;8.00;100.00;95902.94;1020775;28;20035;-71
2022/11/01 00:29:40;;;;;;;26.33;14.65;;;;;;;7.96;100.00;95901.84;1022334;28;20031;-71
2022/11/01 00:30:10;;;;;;;30.70;15.93;;;;;;;8.02;100.00;95910.56;1021479;29;20275;-70
2022/11/01 00:30:41;;;;;;;23.88;13.55;;;;;;;7.98;100.00;95906.81;1017706;29;20090;-71
2022/11/01 00:31:12;;;;;;;27.23;13.95;;;;;;;8.02;100.00;95906.13;1021887;28;20556;-70
2022/11/01 00:31:43;;;;;;;24.50;15.07;;;;;;;7.99;100.00;95908.41;1025074;28;20198;-70
2022/11/01 00:32:13;;;;;;;28.10;15.05;;;;;;;8.02;100.00;95915.78;1025091;28;20344;-70
2022/11/01 00:32:44;;;;;;;23.77;14.82;;;;;;;7.99;100.00;95911.03;1022843;28;20039;-71
2022/11/01 00:33:14;;;;;;;28.15;16.67;;;;;;;8.06;100.00;95911.66;1025850;28;20122;-70
2022/11/01 00:33:44;;;;;;;31.27;16.10;;;;;;;8.06;100.00;95906.41;1029855;28;20034;-70
2022/11/01 00:34:15;;;;;;;26.48;17.17;;;;;;;8.00;100.00;95894.31;1021572;28;20192;-72
2022/11/01 00:34:46;;;;;;;33.40;17.80;;;;;;;8.08;100.00;95920.03;1018426;29;20024;-70
2022/11/01 00:35:16;;;;;;;29.33;16.25;;;;;;;8.09;100.00;95905.16;1017763;29;20509;-71
2022/11/01 00:35:47;;;;;;;29.02;17.05;;;;;;;8.13;100.00;95914.06;1021701;28;20473;-72
2022/11/01 00:36:18;;;;;;;24.92;15.38;;;;;;;8.21;100.00;95914.44;1017576;29;20027;-71
2022/11/01 00:36:48;;;;;;;30.40;15.52;;;;;;;8.24;100.00;95918.38;1017931;29;20332;-71
2022/11/01 00:37:19;;;;;;;25.83;15.15;;;;;;;8.22;100.00;95917.84;1014482;28;20048;-71
2022/11/01 00:37:49;;;;;;;26.27;15.85;;;;;;;8.29;100.00;95910.63;1026122;28;20035;-70
2022/11/01 00:38:20;;;;;;;29.02;14.80;;;;;;;8.30;100.00;95912.19;1033658;28;20022;-69
2022/11/01 00:38:51;;;;;;;21.52;14.50;;;;;;;8.30;100.00;95906.19;1034044;28;20030;-70
2022/11/01 00:39:21;;;;;;;24.15;15.13;;;;;;;8.34;100.00;95912.50;1038009;28;20462;-71
2022/11/01 00:39:52;;;;;;;21.92;14.00;;;;;;;8.33;100.00;95909.09;1033742;28;20030;-71
2022/11/01 00:40:22;;;;;;;23.08;13.32;;;;;;;8.33;100.00;95916.94;1029703;28;20038;-70
2022/11/01 00:40:52;;;;;;;21.40;12.80;;;;;;;8.28;100.00;95901.19;1025896;28;20031;-70
2022/11/01 00:41:23;;;;;;;20.73;14.20;;;;;;;8.37;100.00;95917.25;1021728;28;20822;-71
2022/11/01 00:41:53;;;;;;;25.65;13.32;;;;;;;8.40;100.00;95907.13;1021702;29;20042;-70
2022/11/01 00:42:24;;;;;;;20.08;12.57;;;;;;;8.38;100.00;95908.38;1020684;28;20028;-70
2022/11/01 00:42:54;;;;;;;23.00;13.52;;;;;;;8.43;100.00;95916.31;1021538;28;20019;-70
2022/11/01 00:43:25;;;;;;;22.95;13.32;;;;;;;8.41;100.00;95915.75;1025726;28;20023;-69
2022/11/01 00:43:58;;;;;;;21.20;13.02;;;;;;;8.40;100.00;95912.34;1021652;29;20023;-70
2022/11/01 00:44:28;;;;;;;19.88;12.98;;;;;;;8.23;100.00;95891.47;1017633;29;20039;-70
2022/11/01 00:44:59;;;;;;;25.25;13.10;;;;;;;8.45;100.00;95919.44;1017364;29;20271;-70
2022/11/01 00:45:29;;;;;;;21.33;11.88;;;;;;;8.46;100.00;95921.84;1017849;29;20027;-70
2022/11/01 00:46:00;;;;;;;21.77;12.68;;;;;;;8.44;100.00;95912.66;1017995;28;20039;-71
2022/11/01 00:46:31;;;;;;;20.98;12.10;;;;;;;8.44;100.00;95915.25;1029283;28;20023;-70
2022/11/01 00:47:02;;;;;;;20.80;12.60;;;;;;;8.43;100.00;95914.47;1025487;28;20022;-70
2022/11/01 00:47:32;;;;;;;18.67;11.80;;;;;;;8.44;100.00;95920.50;1021543;29;20271;-70
2022/11/01 00:48:05;;;;;;;24.83;12.50;;;;;;;8.46;100.00;95915.81;1026353;28;20062;-71
2022/11/01 00:48:36;;;;;;;23.42;12.70;;;;;;;8.48;100.00;95924.19;1029756;28;20040;-69
2022/11/01 00:49:06;;;;;;;18.92;10.85;;;;;;;8.49;100.00;95908.28;1029255;28;20265;-70
2022/11/01 00:49:37;;;;;;;22.77;11.93;;;;;;;8.46;100.00;95910.59;1025604;28;20027;-70
2022/11/01 00:50:07;;;;;;;20.13;12.18;;;;;;;8.49;100.00;95910.09;1025240;28;20022;-71
2022/11/01 00:50:38;;;;;;;18.08;10.70;;;;;;;8.49;100.00;95907.50;1029645;28;20027;-70
2022/11/01 00:51:09;;;;;;;21.20;11.20;;;;;;;8.52;100.00;95917.47;1021729;29;20483;-71
2022/11/01 00:51:39;;;;;;;19.23;11.10;;;;;;;8.53;100.00;95916.41;1017601;29;20478;-70
2022/11/01 00:52:10;;;;;;;21.95;11.70;;;;;;;8.52;100.00;95908.81;1017534;29;20036;-70
2022/11/01 00:52:40;;;;;;;19.05;11.07;;;;;;;8.55;100.00;95913.53;1017830;29;20027;-71
2022/11/01 00:53:11;;;;;;;23.30;12.25;;;;;;;8.57;100.00;95914.88;1017388;29;20135;-70
2022/11/01 00:53:41;;;;;;;17.25;10.30;;;;;;;8.57;100.00;95914.09;1017928;28;20048;-70
2022/11/01 00:54:12;;;;;;;19.30;11.57;;;;;;;8.56;100.00;95918.53;1025815;28;20854;-70
2022/11/01 00:54:42;;;;;;;18.60;10.70;;;;;;;8.53;100.00;95919.03;1025568;28;20122;-69
2022/11/01 00:55:12;;;;;;;22.25;11.23;;;;;;;8.49;100.00;95904.88;1032752;28;20045;-70
2022/11/01 00:55:43;;;;;;;16.60;10.50;;;;;;;8.50;100.00;95915.06;1029454;28;20030;-71
2022/11/01 00:56:13;;;;;;;17.20;10.20;;;;;;;8.43;100.00;95901.41;1030347;28;20027;-69
2022/11/01 00:56:44;;;;;;;17.98;9.80;;;;;;;8.50;100.00;95916.91;1024575;28;20038;-70
2022/11/01 00:57:17;;;;;;;19.60;11.23;;;;;;;8.44;100.00;95907.41;1023057;28;20031;-70
2022/11/01 00:57:47;;;;;;;19.15;10.73;;;;;;;8.39;100.00;95902.94;1026258;28;20281;-71
2022/11/01 00:58:18;;;;;;;21.58;10.23;;;;;;;8.40;100.00;95898.47;1030244;28;20049;-70
2022/11/01 00:58:49;;;;;;;17.63;10.20;;;;;;;8.44;100.00;95912.66;1030553;28;20023;-70
2022/11/01 00:59:22;;;;;;;17.50;10.32;;;;;;;8.41;100.00;95903.47;1030478;28;20065;-70
2022/11/01 00:59:52;;;;;;;20.23;10.43;;;;;;;8.44;100.00;95908.19;1029885;28;20433;-70
2022/11/01 01:00:26;;;;;;;17.65;9.27;;;;;;;8.44;100.00;95910.81;1030482;28;20386;-70
2022/11/01 01:00:56;;;;;;;17.60;10.07;;;;;;;8.47;100.00;95912.16;1026319;28;20026;-70
2022/11/01 01:01:27;;;;;;;18.10;10.48;;;;;;;8.44;100.00;95905.59;1026578;28;20664;-71
2022/11/01 01:01:57;;;;;;;18.13;10.13;;;;;;;8.50;100.00;95911.66;1029510;28;20057;-70
2022/11/01 01:02:27;;;;;;;17.77;10.10;;;;;;;8.55;100.00;95908.31;1029636;28;20030;-71
2022/11/01 01:02:58;;;;;;;17.15;10.13;;;;;;;8.55;100.00;95906.50;1030335;28;20026;-71
2022/11/01 01:03:28;;;;;;;20.85;11.20;;;;;;;8.53;100.00;95905.97;1026416;28;20097;-71
2022/11/01 01:03:59;;;;;;;19.73;10.20;;;;;;;8.55;100.00;95909.13;1034580;28;20029;-70
2022/11/01 01:04:29;;;;;;;16.92;9.63;;;;;;;8.55;100.00;95908.31;1034461;28;20507;-70
2022/11/01 01:05:00;;;;;;;16.42;9.55;;;;;;;8.54;100.00;95907.53;1026343;28;20023;-71
2022/11/01 01:05:31;;;;;;;16.63;9.23;;;;;;;8.56;100.00;95908.09;1025926;28;20065;-69
2022/11/01 01:06:02;;;;;;;19.00;9.63;;;;;;;8.53;100.00;95900.72;1022807;28;20031;-71
2022/11/01 01:06:32;;;;;;;15.90;9.30;;;;;;;8.52;100.00;95912.22;1018587;29;20299;-70
2022/11/01 01:07:03;;;;;;;21.13;10.07;;;;;;;8.50;100.00;95907.22;1025472;28;20018;-70
2022/11/01 01:07:33;;;;;;;17.95;9.55;;;;;;;8.47;100.00;95905.09;1025998;28;20087;-70
2022/11/01 01:08:09;;;;;;;23.35;10.02;;;;;;;8.46;100.00;95900.13;1026357;28;20019;-71
2022/11/01 01:08:40;;;;;;;22.92;9.27;;;;;;;8.43;100.00;95898.00;1025678;28;20652;-70
2022/11/01 01:09:13;;;;;;;17.05;9.48;;;;;;;8.37;100.00;95896.31;1027186;28;20273;-71
2022/11/01 01:09:43;;;;;;;17.17;9.10;;;;;;;8.39;100.00;95904.75;1032119;28;20422;-72
2022/11/01 01:10:14;;;;;;;20.27;9.25;;;;;;;8.33;100.00;95896.03;1037998;28;20738;-69
2022/11/01 01:10:44;;;;;;;21.70;9.40;;;;;;;8.40;100.00;95901.09;1030456;28;20867;-72
2022/11/01 01:11:15;;;;;;;16.73;9.75;;;;;;;8.38;100.00;95905.78;1030267;28;20137;-70
2022/11/01 01:11:45;;;;;;;14.35;8.70;;;;;;;8.41;100.00;95902.66;1026051;28;20027;-72
2022/11/01 01:12:16;;;;;;;17.85;9.57;;;;;;;8.38;100.00;95897.94;1025514;28;20022;-71
2022/11/01 01:12:46;;;;;;;19.92;9.05;;;;;;;8.38;100.00;95900.53;1026208;28;20035;-71
2022/11/01 01:13:17;;;;;;;18.13;8.50;;;;;;;8.40;100.00;95896.66;1024759;28;20552;-71
2022/11/01 01:13:47;;;;;;;17.23;8.38;;;;;;;8.47;100.00;95902.47;1028770;28;20768;-71
2022/11/01 01:14:18;;;;;;;15.25;8.60;;;;;;;8.48;100.00;95905.88;1034553;28;20034;-69
2022/11/01 01:14:48;;;;;;;19.33;8.68;;;;;;;8.44;100.00;95889.91;1034365;28;20018;-71
2022/11/01 01:15:19;;;;;;;15.82;9.30;;;;;;;8.54;100.00;95902.28;1026107;28;20018;-71
2022/11/01 01:15:50;;;;;;;17.38;8.90;;;;;;;8.58;100.00;95906.00;1026396;28;20030;-71
2022/11/01 01:16:20;;;;;;;15.73;8.32;;;;;;;8.64;100.00;95909.47;1022311;29;20031;-70
2022/11/01 01:16:51;;;;;;;17.58;8.85;;;;;;;8.65;100.00;95911.84;1026382;28;20094;-70
2022/11/01 01:17:21;;;;;;;17.23;9.02;;;;;;;8.57;100.00;95909.66;1022211;28;20039;-69
2022/11/01 01:17:52;;;;;;;19.67;9.13;;;;;;;8.69;100.00;95915.56;1026258;28;20547;-71
2022/11/01 01:18:22;;;;;;;17.33;9.70;;;;;;;8.67;100.00;95917.59;1021143;29;20047;-69
2022/11/01 01:18:52;;;;;;;15.93;8.27;;;;;;;8.67;100.00;95917.59;1016631;29;20052;-71
2022/11/01 01:19:24;;;;;;;15.73;8.43;;;;;;;8.63;100.00;95900.06;1026252;28;20030;-69
2022/11/01 01:19:54;;;;;;;15.80;9.30;;;;;;;8.70;100.00;95911.88;1022354;29;20019;-69
2022/11/01 01:20:25;;;;;;;14.30;8.15;;;;;;;8.68;100.00;95911.34;1022621;29;20294;-71
2022/11/01 01:21:01;;;;;;;12.82;8.15;;;;;;;8.67;100.00;95922.06;1034975;28;20451;-70
2022/11/01 01:21:32;;;;;;;12.50;7.88;;;;;;;8.64;100.00;95912.88;1022609;29;20556;-70
2022/11/01 01:22:02;;;;;;;15.95;8.15;;;;;;;8.64;100.00;95912.88;1028658;28;20265;-67
2022/11/01 01:22:33;;;;;;;14.80;8.73;;;;;;;8.66;100.00;95916.03;1025708;28;20030;-70
2022/11/01 01:23:03;;;;;;;14.52;8.13;;;;;;;8.66;100.00;95916.03;1034623;28;20164;-72
2022/11/01 01:23:34;;;;;;;14.60;7.43;;;;;;;8.67;100.00;95917.59;1026873;28;20062;-73
2022/11/01 01:24:05;;;;;;;13.95;7.95;;;;;;;8.66;100.00;95916.03;1026365;28;20121;-70
2022/11/01 01:24:44;;;;;;;14.60;7.90;;;;;;;8.72;100.00;95915.06;1014519;29;20425;-71
2022/11/01 01:25:14;;;;;;;12.60;7.55;;;;;;;8.64;100.00;95909.47;1018916;29;20038;-70
2022/11/01 01:25:45;;;;;;;16.83;8.98;;;;;;;8.66;100.00;95910.81;1026189;28;20794;-70
2022/11/01 01:26:15;;;;;;;17.60;8.10;;;;;;;8.67;100.00;95914.22;1022764;29;20470;-70
2022/11/01 01:26:46;;;;;;;14.50;7.30;;;;;;;8.65;100.00;95914.47;1014508;29;20024;-71
2022/11/01 01:27:16;;;;;;;16.83;8.40;;;;;;;8.65;100.00;95909.25;1018449;29;20031;-70
2022/11/01 01:27:48;;;;;;;19.67;8.25;;;;;;;8.60;100.00;95901.31;1026898;28;20018;-71
2022/11/01 01:28:18;;;;;;;14.98;7.80;;;;;;;8.62;100.00;95914.97;1026302;28;20031;-70
2022/11/01 01:28:52;;;;;;;13.40;7.95;;;;;;;8.37;100.00;95876.19;1018802;28;20307;-70
2022/11/01 01:29:22;;;;;;;13.57;8.15;;;;;;;8.60;100.00;95906.56;1022871;29;20031;-70
2022/11/01 01:29:53;;;;;;;16.10;8.85;;;;;;;8.59;100.00;95920.69;1018461;29;20263;-70
2022/11/01 01:30:23;;;;;;;17.70;8.30;;;;;;;8.59;100.00;95914.66;1022711;29;20086;-72
2022/11/01 01:30:53;;;;;;;13.48;7.93;;;;;;;8.56;100.00;95915.94;1026300;28;20758;-72
2022/11/01 01:31:24;;;;;;;21.10;8.35;;;;;;;8.49;100.00;95904.88;1026433;28;20213;-71
2022/11/01 01:31:54;;;;;;;15.00;7.28;;;;;;;8.54;100.00;95912.75;1022327;29;20637;-70
2022/11/01 01:32:25;;;;;;;14.18;8.45;;;;;;;8.50;100.00;95912.47;1017174;29;20039;-71
2022/11/01 01:32:55;;;;;;;18.58;7.90;;;;;;;8.50;100.00;95911.66;1028471;28;20027;-71
2022/11/01 01:33:26;;;;;;;12.13;7.25;;;;;;;8.49;100.00;95910.09;1034549;28;20056;-71
2022/11/01 01:33:57;;;;;;;17.27;7.40;;;;;;;8.52;100.00;95914.84;1026472;28;20031;-71
2022/11/01 01:34:27;;;;;;;17.08;8.45;;;;;;;8.49;100.00;95910.09;1033306;28;20030;-71
2022/11/01 01:34:58;;;;;;;17.05;8.43;;;;;;;8.48;100.00;95911.94;1022126;29;20035;-71
2022/11/01 01:35:28;;;;;;;17.17;7.85;;;;;;;8.50;100.00;95909.06;1026284;28;20065;-71
2022/11/01 01:36:00;;;;;;;12.60;7.43;;;;;;;8.47;100.00;95901.69;1022419;29;20023;-71
2022/11/01 01:36:30;;;;;;;13.27;8.02;;;;;;;8.45;100.00;95903.75;1034260;28;20482;-70
2022/11/01 01:37:01;;;;;;;14.65;8.27;;;;;;;8.49;100.00;95915.34;1022471;29;20266;-70
2022/11/01 01:37:31;;;;;;;14.52;8.25;;;;;;;8.49;100.00;95912.72;1030136;28;20038;-71
2022/11/01 01:38:02;;;;;;;19.58;8.68;;;;;;;8.45;100.00;95914.22;1030441;28;20369;-71
2022/11/01 01:38:32;;;;;;;16.40;7.70;;;;;;;8.45;100.00;95919.44;1030126;28;20030;-70
2022/11/01 01:39:03;;;;;;;14.65;8.02;;;;;;;8.43;100.00;95911.06;1026410;28;20576;-71
2022/11/01 01:39:33;;;;;;;17.13;8.18;;;;;;;8.47;100.00;95912.16;1030251;28;20053;-71
2022/11/01 01:40:05;;;;;;;15.35;7.47;;;;;;;8.48;100.00;95913.72;1026398;28;20054;-71
2022/11/01 01:40:35;;;;;;;14.40;7.93;;;;;;;8.46;100.00;95913.19;1018348;29;20031;-70
2022/11/01 01:41:55;;;;;;;15.60;7.88;;;;;;;8.43;100.00;95916.31;1022335;29;20395;-70
2022/11/01 01:42:26;;;;;;;17.33;8.13;;;;;;;8.40;100.00;95909.72;1029356;28;20301;-71
2022/11/01 01:42:57;;;;;;;17.02;8.02;;;;;;;8.40;100.00;95916.78;1022866;28;20033;-69
2022/11/01 01:43:40;;;;;;;16.05;7.93;;;;;;;8.45;100.00;95919.44;1014626;29;20717;-71
2022/11/01 01:44:50;;;;;;;13.65;7.40;;;;;;;8.44;100.00;95917.88;1026417;28;20069;-72
2022/11/01 01:45:34;;;;;;;17.23;7.78;;;;;;;8.45;100.00;95935.13;1032094;28;20801;-70
2022/11/01 01:46:05;;;;;;;15.63;7.30;;;;;;;8.40;100.00;95928.03;1027303;28;20603;-69
2022/11/01 01:46:35;;;;;;;17.42;8.10;;;;;;;8.36;100.00;95923.50;1024772;28;20305;-69
2022/11/01 01:47:06;;;;;;;12.90;7.88;;;;;;;8.32;100.00;95920.59;1030172;28;20033;-69
2022/11/01 01:47:37;;;;;;;11.45;7.35;;;;;;;8.16;100.00;95890.84;1022312;29;20102;-70
2022/11/01 01:48:12;;;;;;;20.75;7.50;;;;;;;8.34;100.00;95922.97;1030335;28;20071;-72
2022/11/01 01:48:45;;;;;;;13.73;7.22;;;;;;;8.29;100.00;95921.09;1026172;28;21045;-71
2022/11/01 01:49:15;;;;;;;17.80;7.97;;;;;;;8.35;100.00;95935.00;1021921;29;20282;-70
2022/11/01 01:49:47;;;;;;;14.80;7.32;;;;;;;8.36;100.00;95926.13;1030288;28;20305;-71
2022/11/01 01:50:24;;;;;;;13.52;7.78;;;;;;;8.26;100.00;95913.72;1034374;28;20472;-70
2022/11/01 01:51:02;;;;;;;19.90;8.35;;;;;;;8.29;100.00;95930.75;1034553;28;20383;-70
2022/11/01 01:51:33;;;;;;;15.25;7.75;;;;;;;8.26;100.00;95922.34;1018209;29;20031;-70
2022/11/01 01:52:03;;;;;;;11.10;6.93;;;;;;;8.24;100.00;95921.78;1013876;29;20276;-69
2022/11/01 01:52:36;;;;;;;12.98;8.50;;;;;;;8.20;100.00;95923.31;1025788;28;20045;-71
2022/11/01 01:53:09;;;;;;;17.27;8.35;;;;;;;8.11;100.00;95916.91;1022299;28;20551;-70
2022/11/01 01:53:42;;;;;;;20.00;9.70;;;;;;;8.16;100.00;95924.84;1022283;28;20799;-70
2022/11/01 01:54:12;;;;;;;15.25;8.43;;;;;;;8.12;100.00;95920.34;1022312;29;20419;-70
2022/11/01 01:54:43;;;;;;;17.52;7.95;;;;;;;8.15;100.00;95915.44;1018235;29;20291;-70
2022/11/01 01:55:15;;;;;;;16.48;9.07;;;;;;;8.11;100.00;95909.06;1030055;28;20081;-70
2022/11/01 01:55:59;;;;;;;15.25;8.88;;;;;;;8.15;100.00;95918.03;1022226;29;20038;-70
2022/11/01 01:56:32;;;;;;;12.82;8.55;;;;;;;8.15;100.00;95912.81;1026029;28;20344;-71
2022/11/01 01:57:02;;;;;;;13.77;8.70;;;;;;;8.11;100.00;95919.53;1022366;29;20294;-70
2022/11/01 01:57:33;;;;;;;14.60;8.18;;;;;;;8.14;100.00;95919.06;1022152;29;20365;-69
2022/11/01 01:58:04;;;;;;;12.95;8.63;;;;;;;8.14;100.00;95920.88;1030258;28;20387;-71
2022/11/01 01:58:39;;;;;;;16.13;8.45;;;;;;;8.10;100.00;95914.56;1026034;28;20752;-70
2022/11/01 01:59:10;;;;;;;15.88;8.07;;;;;;;8.05;100.00;95912.69;1026407;28;20034;-71
2022/11/01 01:59:46;;;;;;;14.45;7.65;;;;;;;8.06;100.00;95910.84;1018021;29;20298;-70
2022/11/01 02:00:17;;;;;;;10.95;7.93;;;;;;;8.04;100.00;95911.09;1030062;28;20033;-71
2022/11/01 02:00:50;;;;;;;12.35;8.57;;;;;;;8.00;100.00;95908.16;1022321;29;20266;-70
2022/11/01 02:01:21;;;;;;;12.35;7.85;;;;;;;8.02;100.00;95915.78;1018207;29;20038;-69
2022/11/01 02:01:51;;;;;;;16.20;8.57;;;;;;;8.00;100.00;95913.38;1024529;28;20275;-72
2022/11/01 02:02:22;;;;;;;14.15;9.50;;;;;;;7.98;100.00;95912.03;1021207;29;20416;-68
2022/11/01 02:02:52;;;;;;;12.60;8.02;;;;;;;7.91;100.00;95906.22;1022268;29;20031;-70
2022/11/01 02:03:26;;;;;;;17.05;8.93;;;;;;;7.95;100.00;95912.56;1022037;28;20035;-70
2022/11/01 02:03:56;;;;;;;16.70;8.20;;;;;;;7.93;100.00;95909.38;1022161;29;20027;-70
2022/11/01 02:04:34;;;;;;;15.90;9.38;;;;;;;7.91;100.00;95916.66;1030213;28;20286;-71
2022/11/01 02:05:18;;;;;;;16.50;8.40;;;;;;;7.89;100.00;95916.13;1030133;28;20014;-70
2022/11/01 02:06:00;;;;;;;16.15;8.52;;;;;;;7.86;100.00;95914.00;1030061;28;20273;-70
2022/11/01 02:06:30;;;;;;;16.70;9.30;;;;;;;7.84;100.00;95916.03;1026144;28;20625;-71
2022/11/01 02:07:01;;;;;;;16.88;9.13;;;;;;;7.83;100.00;95917.06;1024970;28;20266;-72
2022/11/01 02:07:32;;;;;;;15.77;8.50;;;;;;;7.77;100.00;95909.16;1021612;28;20032;-72
2022/11/01 02:08:04;;;;;;;17.90;8.75;;;;;;;7.82;100.00;95921.53;1017788;29;20040;-71
2022/11/01 02:08:34;;;;;;;12.02;7.65;;;;;;;7.81;100.00;95922.53;1031646;28;20109;-70
2022/11/01 02:09:05;;;;;;;16.35;8.98;;;;;;;7.81;100.00;95912.06;1026446;28;20706;-70
2022/11/01 02:09:39;;;;;;;20.70;9.20;;;;;;;7.77;100.00;95911.78;1026167;28;20026;-70
2022/11/01 02:10:09;;;;;;;15.45;9.05;;;;;;;7.77;100.00;95919.59;1030227;28;20031;-71
2022/11/01 02:10:40;;;;;;;12.98;8.23;;;;;;;7.80;100.00;95918.34;1026213;28;20273;-72
2022/11/01 02:11:10;;;;;;;13.98;7.93;;;;;;;7.78;100.00;95921.22;1022280;29;20058;-69
2022/11/01 02:11:41;;;;;;;15.95;8.93;;;;;;;7.81;100.00;95919.91;1030408;28;20036;-70
2022/11/01 02:12:11;;;;;;;18.60;9.38;;;;;;;7.78;100.00;95921.22;1029293;28;20106;-70
2022/11/01 02:12:46;;;;;;;14.55;8.52;;;;;;;7.72;100.00;95903.88;1029905;28;20439;-71
2022/11/01 02:13:17;;;;;;;12.65;8.30;;;;;;;7.78;100.00;95923.03;1022257;29;20492;-71
2022/11/01 02:13:48;;;;;;;12.27;8.55;;;;;;;7.83;100.00;95919.69;1022360;28;20282;-71
2022/11/01 02:14:19;;;;;;;13.07;8.10;;;;;;;7.83;100.00;95917.06;1030061;28;20502;-71
2022/11/01 02:14:50;;;;;;;20.77;9.38;;;;;;;7.86;100.00;95922.59;1034418;28;20014;-71
2022/11/01 02:15:22;;;;;;;15.77;8.63;;;;;;;7.82;100.00;95915.50;1022168;28;20587;-71
2022/11/01 02:16:04;;;;;;;17.85;9.02;;;;;;;7.85;100.00;95922.88;1030625;28;20073;-71
2022/11/01 02:16:53;;;;;;;13.68;8.73;;;;;;;7.80;100.00;95919.13;1026067;28;20583;-70
2022/11/01 02:17:30;;;;;;;15.60;9.10;;;;;;;7.77;100.00;95917.00;1030140;28;20261;-71
2022/11/01 02:18:07;;;;;;;18.52;8.20;;;;;;;7.74;100.00;95914.06;1030014;28;20312;-69
2022/11/01 02:18:41;;;;;;;19.70;8.48;;;;;;;7.71;100.00;95912.75;1025722;28;20250;-70
2022/11/01 02:19:20;;;;;;;14.63;8.52;;;;;;;7.67;100.00;95919.47;1022138;29;20259;-72
2022/11/01 02:19:57;;;;;;;17.20;8.85;;;;;;;7.65;100.00;95918.94;1025678;28;20285;-70
2022/11/01 02:20:50;;;;;;;12.98;7.93;;;;;;;7.64;100.00;95924.38;1020272;28;20290;-71
2022/11/01 02:21:40;;;;;;;11.80;7.80;;;;;;;7.62;100.00;95922.00;1022420;29;20990;-70
2022/11/01 02:22:29;;;;;;;17.65;8.05;;;;;;;7.58;100.00;95923.53;1010899;29;20272;-69
2022/11/01 02:23:19;;;;;;;16.98;8.43;;;;;;;7.56;100.00;95922.97;1010371;28;20270;-71
2022/11/01 02:24:19;;;;;;;14.18;8.20;;;;;;;7.53;100.00;95924.22;1026627;28;20690;-70
2022/11/01 02:24:52;;;;;;;18.73;8.50;;;;;;;7.53;100.00;95926.03;1028686;28;20022;-72
2022/11/01 02:25:28;;;;;;;18.50;8.82;;;;;;;7.51;100.00;95925.47;1022218;28;20634;-69
2022/11/01 02:26:26;;;;;;;14.57;8.30;;;;;;;7.48;100.00;95933.81;1022254;29;20258;-70
2022/11/01 02:27:18;;;;;;;24.48;8.75;;;;;;;7.47;100.00;95929.59;1023590;28;20258;-71
2022/11/01 02:28:08;;;;;;;19.42;8.88;;;;;;;7.43;100.00;95928.50;1027076;28;20260;-71
2022/11/01 02:29:16;;;;;;;26.48;10.05;;;;;;;7.38;100.00;95921.41;1021382;29;20274;-70
2022/11/01 02:29:59;;;;;;;19.45;8.25;;;;;;;7.36;100.00;95922.66;1025307;28;20676;-73
2022/11/01 02:30:55;;;;;;;15.57;9.02;;;;;;;7.33;100.00;95922.09;1023136;28;20543;-70
2022/11/01 02:31:57;;;;;;;21.17;8.43;;;;;;;7.33;100.00;95919.47;1018712;29;20263;-72